createdAt,value
2019-05-22T00:00:39.710Z,14.23
2019-05-22T00:01:39.700Z,14.20
2019-05-22T00:02:39.694Z,14.20
2019-05-22T00:03:39.684Z,14.23
2019-05-22T00:04:39.680Z,14.15
2019-05-22T00:05:39.680Z,14.20
2019-05-22T00:06:39.695Z,14.11
2019-05-22T00:07:39.660Z,14.15
2019-05-22T00:08:39.704Z,14.15
2019-05-22T00:09:39.644Z,14.17
2019-05-22T00:10:39.637Z,14.25
2019-05-22T00:11:39.637Z,14.23
2019-05-22T00:12:46.852Z,14.23
2019-05-22T00:13:39.620Z,14.26
2019-05-22T00:14:39.614Z,14.17
2019-05-22T00:15:39.599Z,14.18
2019-05-22T00:16:39.600Z,14.20
2019-05-22T00:17:39.593Z,14.18
2019-05-22T00:18:39.583Z,14.12
2019-05-22T00:19:39.576Z,14.22
2019-05-22T00:20:39.567Z,14.18
2019-05-22T00:21:39.571Z,14.20
2019-05-22T00:22:39.552Z,14.15
2019-05-22T00:23:39.556Z,14.15
2019-05-22T00:24:39.540Z,14.11
2019-05-22T00:25:39.531Z,14.12
2019-05-22T00:26:39.524Z,14.17
2019-05-22T00:27:39.519Z,14.15
2019-05-22T00:28:39.513Z,14.20
2019-05-22T00:29:39.502Z,14.18
2019-05-22T00:30:39.499Z,14.15
2019-05-22T00:31:39.491Z,14.17
2019-05-22T00:32:39.490Z,14.14
2019-05-22T00:33:39.476Z,14.15
2019-05-22T00:34:39.470Z,14.11
2019-05-22T00:35:39.457Z,14.14
2019-05-22T00:36:39.457Z,14.17
2019-05-22T00:37:39.449Z,14.18
2019-05-22T00:38:39.444Z,14.22
2019-05-22T00:39:39.433Z,14.14
2019-05-22T00:40:39.429Z,14.14
2019-05-22T00:41:39.421Z,14.10
2019-05-22T00:42:39.411Z,14.08
2019-05-22T00:43:39.404Z,14.00
2019-05-22T00:44:39.401Z,14.00
2019-05-22T00:45:39.394Z,14.03
2019-05-22T00:46:39.385Z,14.03
2019-05-22T00:47:39.375Z,14.11
2019-05-22T00:48:39.371Z,13.99
2019-05-22T00:49:39.366Z,14.05
2019-05-22T00:50:39.358Z,14.07
2019-05-22T00:51:39.347Z,13.99
2019-05-22T00:52:39.345Z,14.00
2019-05-22T00:53:39.337Z,13.96
2019-05-22T00:54:39.329Z,13.97
2019-05-22T00:55:39.322Z,14.00
2019-05-22T00:56:39.312Z,14.08
2019-05-22T00:57:39.304Z,14.08
2019-05-22T00:58:39.302Z,14.00
2019-05-22T00:59:39.291Z,13.96
2019-05-22T01:00:39.359Z,13.99
2019-05-22T01:01:39.337Z,13.97
2019-05-22T01:02:39.265Z,13.96
2019-05-22T01:03:39.265Z,13.96
2019-05-22T01:04:39.256Z,13.97
2019-05-22T01:05:39.249Z,13.95
2019-05-22T01:06:39.239Z,13.97
2019-05-22T01:07:39.235Z,13.93
2019-05-22T01:08:39.223Z,13.95
2019-05-22T01:09:39.222Z,13.97
2019-05-22T01:10:39.214Z,13.92
2019-05-22T01:11:39.206Z,13.95
2019-05-22T01:12:39.202Z,14.03
2019-05-22T01:13:39.194Z,13.97
2019-05-22T01:14:42.867Z,13.93
2019-05-22T01:15:39.181Z,13.99
2019-05-22T01:16:39.172Z,13.93
2019-05-22T01:17:39.169Z,13.90
2019-05-22T01:18:39.158Z,13.95
2019-05-22T01:19:39.149Z,13.85
2019-05-22T01:20:39.141Z,13.89
2019-05-22T01:21:39.139Z,13.92
2019-05-22T01:22:39.128Z,13.89
2019-05-22T01:23:39.118Z,13.90
2019-05-22T01:24:39.115Z,13.92
2019-05-22T01:25:39.108Z,13.87
2019-05-22T01:26:39.100Z,13.92
2019-05-22T01:27:39.092Z,13.87
2019-05-22T01:28:39.093Z,13.87
2019-05-22T01:29:39.076Z,13.90
2019-05-22T01:30:39.072Z,13.85
2019-05-22T01:31:39.064Z,13.85
2019-05-22T01:32:39.055Z,13.87
2019-05-22T01:33:39.046Z,13.85
2019-05-22T01:34:39.040Z,13.85
2019-05-22T01:35:39.035Z,13.89
2019-05-22T01:36:39.029Z,13.86
2019-05-22T01:37:39.025Z,13.87
2019-05-22T01:38:39.011Z,13.90
2019-05-22T01:39:39.006Z,13.86
2019-05-22T01:40:38.997Z,13.83
2019-05-22T01:41:38.994Z,13.85
2019-05-22T01:42:39.020Z,13.85
2019-05-22T01:43:38.974Z,13.89
2019-05-22T01:44:38.969Z,13.83
2019-05-22T01:45:38.963Z,13.78
2019-05-22T01:46:38.955Z,13.83
2019-05-22T01:47:38.947Z,13.78
2019-05-22T01:48:38.941Z,13.81
2019-05-22T01:49:38.931Z,13.83
2019-05-22T01:50:38.932Z,13.79
2019-05-22T01:51:38.922Z,13.83
2019-05-22T01:52:38.911Z,13.83
2019-05-22T01:53:38.913Z,13.83
2019-05-22T01:54:38.893Z,13.81
2019-05-22T01:55:38.892Z,13.81
2019-05-22T01:56:38.885Z,13.75
2019-05-22T01:57:38.875Z,13.75
2019-05-22T01:58:38.866Z,13.83
2019-05-22T01:59:38.862Z,13.78
2019-05-22T02:00:38.859Z,13.78
2019-05-22T02:01:38.843Z,13.79
2019-05-22T02:02:38.837Z,13.85
2019-05-22T02:03:38.843Z,13.78
2019-05-22T02:04:38.827Z,13.75
2019-05-22T02:05:38.818Z,13.78
2019-05-22T02:06:38.812Z,13.77
2019-05-22T02:07:38.806Z,13.74
2019-05-22T02:08:38.794Z,13.78
2019-05-22T02:09:38.791Z,13.67
2019-05-22T02:10:38.780Z,13.75
2019-05-22T02:11:38.775Z,13.67
2019-05-22T02:12:38.772Z,13.75
2019-05-22T02:13:38.810Z,13.77
2019-05-22T02:14:38.772Z,13.72
2019-05-22T02:15:38.742Z,13.72
2019-05-22T02:16:53.863Z,13.72
2019-05-22T02:17:38.732Z,13.70
2019-05-22T02:18:38.722Z,13.75
2019-05-22T02:19:38.809Z,13.71
2019-05-22T02:20:38.703Z,13.72
2019-05-22T02:21:38.702Z,13.72
2019-05-22T02:22:38.701Z,13.68
2019-05-22T02:23:38.686Z,13.63
2019-05-22T02:24:38.677Z,13.63
2019-05-22T02:25:38.671Z,13.68
2019-05-22T02:26:38.667Z,13.65
2019-05-22T02:27:38.658Z,13.70
2019-05-22T02:28:38.649Z,13.70
2019-05-22T02:29:38.639Z,13.71
2019-05-22T02:30:38.638Z,13.65
2019-05-22T02:31:38.634Z,13.67
2019-05-22T02:32:38.619Z,13.72
2019-05-22T02:33:38.610Z,13.62
2019-05-22T02:34:38.602Z,13.62
2019-05-22T02:35:38.600Z,13.70
2019-05-22T02:36:38.589Z,13.65
2019-05-22T02:37:38.591Z,13.65
2019-05-22T02:38:38.576Z,13.70
2019-05-22T02:39:38.569Z,13.70
2019-05-22T02:40:38.561Z,13.71
2019-05-22T02:41:38.561Z,13.67
2019-05-22T02:42:38.546Z,13.72
2019-05-22T02:43:38.540Z,13.71
2019-05-22T02:44:38.532Z,13.65
2019-05-22T02:45:38.529Z,13.63
2019-05-22T02:46:38.516Z,13.67
2019-05-22T02:47:38.514Z,13.65
2019-05-22T02:48:42.098Z,13.57
2019-05-22T02:49:38.496Z,13.67
2019-05-22T02:50:38.489Z,13.63
2019-05-22T02:51:38.483Z,13.65
2019-05-22T02:52:38.559Z,13.68
2019-05-22T02:53:38.464Z,13.70
2019-05-22T02:54:38.458Z,13.67
2019-05-22T02:55:38.452Z,13.60
2019-05-22T02:56:38.448Z,13.62
2019-05-22T02:57:38.441Z,13.62
2019-05-22T02:58:38.432Z,13.67
2019-05-22T02:59:38.426Z,13.63
2019-05-22T03:00:38.413Z,13.60
2019-05-22T03:01:38.407Z,13.53
2019-05-22T03:02:38.400Z,13.49
2019-05-22T03:03:38.389Z,13.54
2019-05-22T03:04:38.387Z,13.53
2019-05-22T03:05:38.378Z,13.53
2019-05-22T03:06:38.371Z,13.52
2019-05-22T03:07:38.359Z,13.49
2019-05-22T03:08:38.348Z,13.42
2019-05-22T03:09:38.352Z,13.50
2019-05-22T03:10:38.358Z,13.44
2019-05-22T03:11:38.335Z,13.50
2019-05-22T03:12:38.324Z,13.46
2019-05-22T03:13:38.324Z,13.41
2019-05-22T03:14:38.309Z,13.49
2019-05-22T03:15:38.306Z,13.39
2019-05-22T03:16:38.298Z,13.39
2019-05-22T03:17:38.289Z,13.33
2019-05-22T03:18:38.281Z,13.38
2019-05-22T03:19:38.277Z,13.38
2019-05-22T03:20:38.269Z,13.39
2019-05-22T03:21:38.260Z,13.47
2019-05-22T03:22:38.251Z,13.33
2019-05-22T03:23:38.243Z,13.41
2019-05-22T03:24:38.241Z,13.35
2019-05-22T03:25:38.226Z,13.33
2019-05-22T03:26:38.221Z,13.33
2019-05-22T03:27:38.216Z,13.38
2019-05-22T03:28:38.207Z,13.35
2019-05-22T03:29:38.201Z,13.37
2019-05-22T03:30:38.217Z,13.31
2019-05-22T03:31:38.186Z,13.39
2019-05-22T03:32:43.367Z,13.33
2019-05-22T03:33:38.175Z,13.28
2019-05-22T03:34:38.210Z,13.41
2019-05-22T03:35:38.151Z,13.28
2019-05-22T03:36:38.148Z,13.38
2019-05-22T03:37:38.142Z,13.41
2019-05-22T03:38:38.141Z,13.41
2019-05-22T03:39:38.129Z,13.30
2019-05-22T03:40:38.117Z,13.22
2019-05-22T03:41:38.113Z,13.28
2019-05-22T03:42:38.101Z,13.20
2019-05-22T03:43:38.098Z,13.31
2019-05-22T03:44:38.092Z,13.27
2019-05-22T03:45:38.082Z,13.23
2019-05-22T03:46:38.074Z,13.35
2019-05-22T03:47:38.063Z,13.27
2019-05-22T03:48:38.062Z,13.23
2019-05-22T03:49:38.049Z,13.12
2019-05-22T03:50:38.039Z,13.12
2019-05-22T03:51:38.035Z,13.16
2019-05-22T03:52:38.032Z,13.25
2019-05-22T03:53:38.024Z,13.15
2019-05-22T03:54:38.018Z,13.16
2019-05-22T03:55:38.005Z,13.19
2019-05-22T03:56:38.002Z,13.30
2019-05-22T03:57:37.992Z,13.13
2019-05-22T03:58:37.992Z,13.25
2019-05-22T03:59:37.975Z,13.22
2019-05-22T04:00:42.982Z,13.27
2019-05-22T04:01:37.971Z,13.20
2019-05-22T04:02:37.958Z,13.23
2019-05-22T04:03:37.951Z,13.16
2019-05-22T04:04:37.935Z,13.23
2019-05-22T04:05:37.930Z,13.12
2019-05-22T04:06:37.928Z,13.13
2019-05-22T04:07:37.915Z,13.18
2019-05-22T04:08:37.910Z,13.20
2019-05-22T04:09:37.899Z,13.15
2019-05-22T04:10:41.046Z,13.16
2019-05-22T04:11:37.884Z,13.12
2019-05-22T04:12:37.873Z,13.13
2019-05-22T04:13:37.870Z,13.20
2019-05-22T04:14:37.864Z,13.18
2019-05-22T04:15:37.853Z,13.16
2019-05-22T04:16:37.846Z,13.25
2019-05-22T04:17:37.841Z,13.23
2019-05-22T04:18:37.831Z,13.20
2019-05-22T04:19:49.355Z,13.22
2019-05-22T04:20:37.818Z,13.27
2019-05-22T04:21:37.812Z,13.30
2019-05-22T04:22:37.803Z,13.27
2019-05-22T04:23:37.824Z,13.16
2019-05-22T04:24:37.793Z,13.11
2019-05-22T04:25:37.781Z,13.15
2019-05-22T04:26:37.774Z,13.15
2019-05-22T04:27:37.763Z,13.12
2019-05-22T04:28:37.758Z,13.15
2019-05-22T04:29:37.757Z,13.19
2019-05-22T04:30:37.741Z,13.18
2019-05-22T04:31:37.734Z,13.22
2019-05-22T04:32:37.729Z,13.12
2019-05-22T04:33:37.718Z,13.13
2019-05-22T04:34:37.717Z,13.09
2019-05-22T04:35:37.706Z,13.09
2019-05-22T04:36:37.725Z,13.15
2019-05-22T04:37:37.691Z,13.13
2019-05-22T04:38:37.681Z,13.15
2019-05-22T04:39:37.678Z,13.12
2019-05-22T04:40:37.667Z,13.16
2019-05-22T04:41:37.663Z,13.12
2019-05-22T04:42:37.655Z,13.16
2019-05-22T04:43:37.643Z,13.16
2019-05-22T04:44:37.640Z,13.11
2019-05-22T04:45:37.631Z,13.15
2019-05-22T04:46:37.624Z,13.19
2019-05-22T04:47:37.615Z,13.19
2019-05-22T04:48:37.612Z,13.18
2019-05-22T04:49:37.601Z,13.22
2019-05-22T04:50:37.598Z,13.20
2019-05-22T04:51:37.585Z,13.12
2019-05-22T04:52:37.577Z,13.15
2019-05-22T04:53:37.572Z,13.19
2019-05-22T04:54:37.562Z,13.16
2019-05-22T04:55:37.558Z,13.12
2019-05-22T04:56:37.549Z,13.16
2019-05-22T04:57:37.541Z,13.12
2019-05-22T04:58:37.534Z,13.13
2019-05-22T04:59:37.531Z,13.15
2019-05-22T05:00:37.524Z,13.03
2019-05-22T05:01:37.515Z,13.08
2019-05-22T05:02:37.518Z,13.12
2019-05-22T05:03:37.497Z,13.12
2019-05-22T05:04:37.493Z,13.18
2019-05-22T05:05:37.482Z,13.13
2019-05-22T05:06:37.472Z,13.15
2019-05-22T05:07:37.460Z,13.09
2019-05-22T05:08:37.456Z,13.18
2019-05-22T05:09:37.458Z,13.16
2019-05-22T05:10:37.446Z,13.13
2019-05-22T05:11:37.436Z,13.15
2019-05-22T05:12:38.242Z,13.18
2019-05-22T05:13:37.424Z,13.13
2019-05-22T05:14:37.413Z,13.22
2019-05-22T05:15:37.465Z,13.18
2019-05-22T05:16:37.396Z,13.20
2019-05-22T05:17:37.388Z,13.16
2019-05-22T05:18:37.389Z,13.19
2019-05-22T05:19:37.375Z,13.12
2019-05-22T05:20:37.366Z,13.18
2019-05-22T05:21:37.365Z,13.12
2019-05-22T05:22:37.355Z,13.12
2019-05-22T05:23:37.344Z,13.11
2019-05-22T05:24:37.342Z,13.12
2019-05-22T05:25:37.331Z,13.12
2019-05-22T05:26:37.323Z,13.08
2019-05-22T05:27:37.318Z,13.08
2019-05-22T05:28:37.310Z,13.08
2019-05-22T05:29:37.302Z,13.09
2019-05-22T05:30:37.292Z,13.08
2019-05-22T05:31:37.287Z,13.08
2019-05-22T05:32:37.277Z,13.12
2019-05-22T05:33:37.280Z,13.08
2019-05-22T05:34:37.268Z,13.12
2019-05-22T05:35:37.255Z,13.12
2019-05-22T05:36:37.251Z,13.19
2019-05-22T05:37:37.245Z,13.09
2019-05-22T05:38:37.237Z,13.19
2019-05-22T05:39:37.240Z,13.18
2019-05-22T05:40:37.219Z,13.13
2019-05-22T05:41:37.220Z,13.22
2019-05-22T05:42:37.202Z,13.08
2019-05-22T05:43:37.199Z,13.19
2019-05-22T05:44:37.202Z,13.25
2019-05-22T05:45:37.189Z,13.23
2019-05-22T05:46:37.174Z,13.20
2019-05-22T05:47:37.169Z,13.23
2019-05-22T05:48:37.160Z,13.22
2019-05-22T05:49:37.156Z,13.15
2019-05-22T05:50:40.175Z,13.11
2019-05-22T05:51:37.138Z,13.13
2019-05-22T05:52:37.131Z,13.20
2019-05-22T05:53:37.123Z,13.22
2019-05-22T05:54:37.112Z,13.25
2019-05-22T05:55:37.109Z,13.28
2019-05-22T05:56:37.253Z,13.27
2019-05-22T05:57:37.092Z,13.25
2019-05-22T05:58:37.090Z,13.28
2019-05-22T05:59:37.078Z,13.12
2019-05-22T06:00:37.073Z,13.22
2019-05-22T06:01:37.063Z,13.13
2019-05-22T06:02:37.058Z,13.30
2019-05-22T06:03:37.050Z,13.23
2019-05-22T06:04:37.041Z,13.27
2019-05-22T06:05:37.031Z,13.30
2019-05-22T06:06:37.031Z,13.25
2019-05-22T06:07:37.021Z,13.28
2019-05-22T06:08:37.014Z,13.35
2019-05-22T06:09:37.006Z,13.31
2019-05-22T06:10:36.996Z,13.19
2019-05-22T06:11:36.990Z,13.35
2019-05-22T06:12:36.984Z,13.33
2019-05-22T06:13:36.988Z,13.22
2019-05-22T06:14:36.967Z,13.31
2019-05-22T06:15:46.485Z,13.35
2019-05-22T06:16:36.952Z,13.35
2019-05-22T06:17:36.951Z,13.39
2019-05-22T06:18:36.940Z,13.31
2019-05-22T06:19:36.934Z,13.35
2019-05-22T06:20:36.923Z,13.35
2019-05-22T06:21:36.917Z,13.54
2019-05-22T06:22:36.911Z,13.42
2019-05-22T06:23:36.901Z,13.54
2019-05-22T06:24:36.907Z,13.52
2019-05-22T06:25:36.888Z,13.50
2019-05-22T06:26:36.884Z,13.52
2019-05-22T06:27:36.910Z,13.62
2019-05-22T06:28:36.878Z,13.65
2019-05-22T06:29:36.915Z,13.63
2019-05-22T06:30:36.855Z,13.63
2019-05-22T06:31:36.848Z,13.63
2019-05-22T06:32:37.775Z,13.70
2019-05-22T06:33:36.834Z,13.70
2019-05-22T06:34:36.823Z,13.65
2019-05-22T06:35:36.943Z,13.70
2019-05-22T06:36:36.810Z,13.67
2019-05-22T06:37:36.802Z,13.67
2019-05-22T06:38:36.793Z,13.68
2019-05-22T06:39:36.789Z,13.63
2019-05-22T06:40:36.783Z,13.71
2019-05-22T06:41:36.777Z,13.71
2019-05-22T06:42:36.786Z,13.63
2019-05-22T06:43:36.762Z,13.70
2019-05-22T06:44:36.763Z,13.62
2019-05-22T06:45:36.750Z,13.71
2019-05-22T06:46:36.740Z,13.60
2019-05-22T06:47:36.735Z,13.62
2019-05-22T06:48:36.730Z,13.68
2019-05-22T06:49:36.780Z,13.74
2019-05-22T06:50:36.714Z,13.75
2019-05-22T06:51:36.706Z,13.83
2019-05-22T06:52:36.696Z,13.78
2019-05-22T06:53:39.725Z,13.77
2019-05-22T06:54:36.690Z,13.81
2019-05-22T06:55:36.719Z,13.79
2019-05-22T06:56:36.674Z,13.77
2019-05-22T06:57:36.667Z,13.71
2019-05-22T06:58:36.663Z,13.71
2019-05-22T06:59:36.654Z,13.77
2019-05-22T07:00:36.649Z,13.75
2019-05-22T07:01:36.637Z,13.74
2019-05-22T07:02:36.633Z,13.71
2019-05-22T07:03:36.629Z,13.71
2019-05-22T07:04:36.628Z,13.74
2019-05-22T07:05:36.608Z,13.67
2019-05-22T07:06:36.610Z,13.67
2019-05-22T07:07:36.592Z,13.62
2019-05-22T07:08:36.586Z,13.63
2019-05-22T07:09:36.584Z,13.67
2019-05-22T07:10:36.582Z,13.65
2019-05-22T07:11:36.569Z,13.59
2019-05-22T07:12:36.560Z,13.50
2019-05-22T07:13:36.551Z,13.54
2019-05-22T07:14:36.543Z,13.52
2019-05-22T07:15:36.622Z,13.62
2019-05-22T07:16:36.534Z,13.52
2019-05-22T07:17:36.522Z,13.53
2019-05-22T07:18:36.519Z,13.53
2019-05-22T07:19:36.511Z,13.41
2019-05-22T07:20:36.505Z,13.33
2019-05-22T07:21:36.499Z,13.35
2019-05-22T07:22:36.489Z,13.35
2019-05-22T07:23:36.486Z,13.25
2019-05-22T07:24:36.480Z,13.28
2019-05-22T07:25:36.477Z,13.25
2019-05-22T07:26:36.488Z,13.28
2019-05-22T07:27:36.462Z,13.25
2019-05-22T07:28:36.458Z,13.28
2019-05-22T07:29:36.450Z,13.22
2019-05-22T07:30:37.233Z,13.28
2019-05-22T07:31:36.426Z,13.25
2019-05-22T07:32:36.418Z,13.27
2019-05-22T07:33:36.411Z,13.30
2019-05-22T07:34:36.404Z,13.27
2019-05-22T07:35:50.304Z,13.42
2019-05-22T07:36:36.387Z,13.30
2019-05-22T07:37:36.380Z,13.42
2019-05-22T07:38:36.402Z,13.46
2019-05-22T07:39:36.369Z,13.38
2019-05-22T07:40:36.368Z,13.39
2019-05-22T07:41:36.352Z,13.42
2019-05-22T07:42:36.349Z,13.41
2019-05-22T07:43:40.912Z,13.33
2019-05-22T07:44:36.334Z,13.38
2019-05-22T07:45:36.329Z,13.35
2019-05-22T07:46:36.317Z,13.31
2019-05-22T07:47:36.316Z,13.42
2019-05-22T07:48:36.308Z,13.54
2019-05-22T07:49:36.301Z,13.52
2019-05-22T07:50:36.290Z,13.62
2019-05-22T07:51:51.480Z,13.59
2019-05-22T07:52:36.275Z,13.50
2019-05-22T07:53:36.272Z,13.62
2019-05-22T07:54:36.268Z,13.60
2019-05-22T07:55:36.256Z,13.59
2019-05-22T07:56:36.253Z,13.62
2019-05-22T07:57:36.247Z,13.62
2019-05-22T07:58:36.231Z,13.62
2019-05-22T07:59:36.229Z,13.67
2019-05-22T08:00:36.223Z,13.67
2019-05-22T08:01:36.217Z,13.71
2019-05-22T08:02:36.210Z,13.71
2019-05-22T08:03:36.201Z,13.75
2019-05-22T08:04:36.192Z,13.75
2019-05-22T08:05:36.189Z,13.85
2019-05-22T08:06:36.183Z,13.81
2019-05-22T08:07:36.197Z,13.75
2019-05-22T08:08:36.173Z,13.83
2019-05-22T08:09:36.160Z,13.79
2019-05-22T08:10:36.157Z,13.87
2019-05-22T08:11:36.144Z,13.90
2019-05-22T08:12:36.140Z,13.83
2019-05-22T08:13:36.142Z,13.89
2019-05-22T08:14:36.132Z,13.95
2019-05-22T08:15:36.118Z,13.93
2019-05-22T08:16:36.112Z,14.00
2019-05-22T08:17:36.106Z,14.04
2019-05-22T08:18:36.110Z,14.08
2019-05-22T08:19:36.092Z,14.14
2019-05-22T08:20:36.082Z,14.17
2019-05-22T08:21:36.075Z,14.20
2019-05-22T08:22:36.068Z,14.11
2019-05-22T08:23:36.067Z,14.18
2019-05-22T08:24:36.061Z,14.18
2019-05-22T08:25:36.059Z,14.26
2019-05-22T08:26:53.157Z,14.18
2019-05-22T08:27:36.037Z,14.26
2019-05-22T08:28:36.037Z,14.20
2019-05-22T08:29:36.025Z,14.32
2019-05-22T08:30:36.020Z,14.20
2019-05-22T08:31:36.023Z,14.26
2019-05-22T08:32:36.007Z,14.23
2019-05-22T08:33:35.999Z,14.25
2019-05-22T08:34:35.997Z,14.17
2019-05-22T08:35:35.983Z,14.22
2019-05-22T08:36:38.642Z,14.26
2019-05-22T08:37:35.978Z,14.20
2019-05-22T08:38:35.989Z,14.29
2019-05-22T08:39:35.965Z,14.23
2019-05-22T08:40:35.954Z,14.29
2019-05-22T08:41:35.951Z,14.25
2019-05-22T08:42:35.995Z,14.29
2019-05-22T08:43:55.836Z,14.20
2019-05-22T08:44:35.929Z,14.26
2019-05-22T08:45:35.933Z,14.23
2019-05-22T08:46:35.925Z,14.28
2019-05-22T08:47:35.913Z,14.33
2019-05-22T08:48:35.910Z,14.30
2019-05-22T08:49:35.895Z,14.30
2019-05-22T08:50:35.897Z,14.26
2019-05-22T08:51:35.887Z,14.25
2019-05-22T08:52:35.882Z,14.37
2019-05-22T08:53:46.760Z,14.36
2019-05-22T08:54:35.867Z,14.35
2019-05-22T08:55:35.961Z,14.29
2019-05-22T08:56:35.859Z,14.25
2019-05-22T08:57:35.850Z,14.29
2019-05-22T08:58:35.851Z,14.28
2019-05-22T08:59:35.831Z,14.28
2019-05-22T09:00:35.830Z,14.26
2019-05-22T09:01:35.830Z,14.22
2019-05-22T09:02:35.824Z,14.23
2019-05-22T09:03:35.824Z,14.26
2019-05-22T09:04:35.812Z,14.28
2019-05-22T09:05:35.801Z,14.33
2019-05-22T09:06:35.794Z,14.28
2019-05-22T09:07:35.788Z,14.26
2019-05-22T09:08:35.779Z,14.29
2019-05-22T09:09:35.770Z,14.30
2019-05-22T09:10:35.766Z,14.35
2019-05-22T09:11:35.786Z,14.37
2019-05-22T09:12:35.757Z,14.37
2019-05-22T09:13:35.751Z,14.41
2019-05-22T09:14:35.745Z,14.58
2019-05-22T09:15:35.736Z,14.58
2019-05-22T09:16:35.725Z,14.45
2019-05-22T09:17:35.726Z,14.45
2019-05-22T09:18:35.717Z,14.54
2019-05-22T09:19:35.713Z,14.58
2019-05-22T09:20:48.976Z,14.68
2019-05-22T09:21:35.710Z,14.65
2019-05-22T09:22:40.681Z,14.65
2019-05-22T09:23:35.689Z,14.65
2019-05-22T09:24:35.685Z,14.65
2019-05-22T09:25:35.679Z,14.65
2019-05-22T09:26:35.667Z,14.63
2019-05-22T09:27:35.670Z,14.63
2019-05-22T09:28:35.670Z,14.63
2019-05-22T09:29:35.656Z,14.65
2019-05-22T09:30:35.646Z,14.65
2019-05-22T09:31:35.665Z,14.68
2019-05-22T09:32:35.634Z,14.77
2019-05-22T09:33:35.636Z,14.85
2019-05-22T09:34:35.625Z,14.78
2019-05-22T09:35:35.618Z,14.68
2019-05-22T09:36:35.610Z,14.69
2019-05-22T09:37:35.609Z,14.88
2019-05-22T09:38:35.598Z,14.82
2019-05-22T09:39:35.615Z,14.96
2019-05-22T09:40:35.585Z,14.92
2019-05-22T09:41:35.579Z,14.99
2019-05-22T09:42:35.576Z,15.02
2019-05-22T09:43:35.571Z,15.07
2019-05-22T09:44:35.752Z,15.07
2019-05-22T09:45:35.556Z,15.11
2019-05-22T09:46:35.560Z,15.17
2019-05-22T09:47:35.554Z,15.22
2019-05-22T09:48:35.577Z,15.22
2019-05-22T09:49:35.534Z,15.27
2019-05-22T09:50:35.533Z,15.37
2019-05-22T09:51:35.526Z,15.40
2019-05-22T09:52:35.519Z,15.47
2019-05-22T09:53:35.509Z,15.51
2019-05-22T09:54:35.539Z,15.55
2019-05-22T09:55:35.501Z,15.61
2019-05-22T09:56:35.495Z,15.65
2019-05-22T09:57:35.492Z,15.68
2019-05-22T09:58:35.493Z,15.77
2019-05-22T09:59:35.483Z,15.91
2019-05-22T10:00:35.476Z,15.98
2019-05-22T10:01:35.469Z,16.04
2019-05-22T10:02:35.469Z,16.08
2019-05-22T10:03:35.461Z,16.02
2019-05-22T10:04:35.451Z,16.23
2019-05-22T10:05:35.493Z,16.17
2019-05-22T10:06:35.444Z,16.20
2019-05-22T10:07:35.438Z,16.42
2019-05-22T10:08:35.504Z,16.47
2019-05-22T10:09:35.448Z,16.69
2019-05-22T10:10:35.428Z,16.91
2019-05-22T10:11:35.425Z,16.89
2019-05-22T10:12:35.428Z,17.04
2019-05-22T10:13:35.679Z,17.01
2019-05-22T10:14:35.412Z,17.15
2019-05-22T10:15:35.402Z,16.97
2019-05-22T10:16:35.409Z,17.08
2019-05-22T10:17:35.404Z,17.14
2019-05-22T10:18:35.399Z,17.30
2019-05-22T10:19:35.398Z,17.45
2019-05-22T10:20:35.403Z,17.68
2019-05-22T10:21:35.393Z,17.78
2019-05-22T10:22:35.387Z,18.01
2019-05-22T10:23:35.376Z,18.03
2019-05-22T10:24:35.388Z,18.10
2019-05-22T10:25:35.374Z,18.15
2019-05-22T10:26:35.376Z,18.26
2019-05-22T10:27:35.372Z,18.22
2019-05-22T10:28:35.369Z,18.28
2019-05-22T10:29:35.372Z,18.40
2019-05-22T10:30:35.400Z,18.40
2019-05-22T10:31:35.365Z,18.34
2019-05-22T10:32:35.365Z,18.43
2019-05-22T10:33:35.360Z,18.49
2019-05-22T10:34:35.364Z,18.53
2019-05-22T10:35:35.363Z,18.56
2019-05-22T10:36:35.358Z,18.60
2019-05-22T10:37:35.354Z,18.55
2019-05-22T10:38:35.348Z,18.58
2019-05-22T10:39:35.354Z,18.71
2019-05-22T10:40:35.352Z,18.74
2019-05-22T10:41:35.351Z,18.78
2019-05-22T10:42:35.352Z,18.86
2019-05-22T10:43:35.348Z,18.96
2019-05-22T10:44:35.344Z,18.99
2019-05-22T10:45:35.348Z,19.21
2019-05-22T10:46:35.346Z,19.21
2019-05-22T10:47:35.345Z,19.14
2019-05-22T10:48:35.346Z,19.37
2019-05-22T10:49:35.343Z,19.36
2019-05-22T10:50:35.340Z,19.24
2019-05-22T10:51:35.345Z,19.22
2019-05-22T10:52:35.353Z,19.30
2019-05-22T10:53:35.349Z,19.44
2019-05-22T10:54:35.344Z,19.48
2019-05-22T10:55:35.343Z,19.86
2019-05-22T10:56:35.345Z,20.03
2019-05-22T10:57:35.336Z,19.96
2019-05-22T10:58:35.339Z,20.09
2019-05-22T10:59:35.354Z,20.06
2019-05-22T11:00:35.339Z,20.18
2019-05-22T11:01:37.542Z,20.25
2019-05-22T11:02:35.340Z,20.29
2019-05-22T11:03:35.339Z,20.29
2019-05-22T11:04:35.343Z,20.36
2019-05-22T11:05:35.345Z,20.48
2019-05-22T11:06:35.346Z,20.67
2019-05-22T11:07:35.350Z,20.72
2019-05-22T11:08:35.357Z,20.84
2019-05-22T11:09:35.356Z,20.87
2019-05-22T11:10:35.362Z,21.24
2019-05-22T11:11:35.352Z,21.35
2019-05-22T11:12:35.361Z,21.46
2019-05-22T11:13:35.363Z,21.64
2019-05-22T11:14:35.365Z,21.76
2019-05-22T11:15:35.366Z,21.85
2019-05-22T11:16:35.378Z,21.98
2019-05-22T11:17:35.379Z,22.18
2019-05-22T11:18:35.394Z,22.51
2019-05-22T11:19:35.384Z,22.69
2019-05-22T11:20:35.389Z,22.81
2019-05-22T11:21:35.390Z,22.88
2019-05-22T11:22:35.404Z,23.08
2019-05-22T11:23:50.437Z,23.18
2019-05-22T11:24:35.404Z,23.10
2019-05-22T11:25:35.442Z,23.06
2019-05-22T11:26:35.409Z,23.06
2019-05-22T11:27:35.423Z,23.25
2019-05-22T11:28:35.470Z,23.27
2019-05-22T11:29:35.425Z,23.24
2019-05-22T11:30:35.429Z,23.28
2019-05-22T11:31:35.427Z,23.18
2019-05-22T11:32:35.444Z,23.32
2019-05-22T11:33:35.444Z,23.15
2019-05-22T11:34:35.477Z,23.09
2019-05-22T11:35:35.453Z,22.96
2019-05-22T11:36:35.457Z,23.05
2019-05-22T11:37:35.463Z,22.98
2019-05-22T11:38:35.474Z,23.03
2019-05-22T11:39:39.288Z,22.91
2019-05-22T11:40:35.474Z,22.93
2019-05-22T11:41:35.482Z,22.93
2019-05-22T11:42:35.511Z,22.83
2019-05-22T11:43:35.503Z,22.84
2019-05-22T11:44:35.494Z,22.75
2019-05-22T11:45:35.503Z,22.81
2019-05-22T11:46:35.507Z,22.91
2019-05-22T11:47:35.511Z,23.12
2019-05-22T11:48:35.531Z,23.32
2019-05-22T11:49:35.523Z,23.28
2019-05-22T11:50:35.525Z,23.00
2019-05-22T11:51:35.525Z,22.75
2019-05-22T11:52:35.543Z,22.80
2019-05-22T11:53:35.542Z,22.69
2019-05-22T11:54:35.581Z,22.88
2019-05-22T11:55:45.197Z,22.88
2019-05-22T11:56:35.547Z,22.93
2019-05-22T11:57:35.560Z,23.17
2019-05-22T11:58:35.571Z,23.37
2019-05-22T11:59:35.565Z,23.61
2019-05-22T12:00:35.565Z,23.80
2019-05-22T12:01:35.570Z,23.77
2019-05-22T12:02:35.575Z,23.58
2019-05-22T12:03:35.584Z,23.37
2019-05-22T12:04:47.341Z,23.20
2019-05-22T12:05:35.590Z,22.98
2019-05-22T12:06:35.593Z,22.99
2019-05-22T12:07:35.600Z,22.88
2019-05-22T12:08:35.613Z,23.08
2019-05-22T12:09:35.610Z,23.06
2019-05-22T12:10:35.630Z,23.09
2019-05-22T12:11:35.618Z,23.25
2019-05-22T12:12:35.643Z,23.36
2019-05-22T12:13:35.635Z,23.48
2019-05-22T12:14:35.646Z,23.73
2019-05-22T12:15:35.638Z,23.71
2019-05-22T12:16:35.633Z,23.77
2019-05-22T12:17:38.463Z,23.93
2019-05-22T12:18:35.651Z,23.98
2019-05-22T12:19:35.685Z,24.11
2019-05-22T12:20:35.668Z,24.10
2019-05-22T12:21:35.778Z,24.02
2019-05-22T12:22:35.669Z,24.02
2019-05-22T12:23:35.676Z,24.03
2019-05-22T12:24:37.161Z,24.17
2019-05-22T12:25:35.684Z,24.16
2019-05-22T12:26:35.690Z,24.10
2019-05-22T12:27:35.699Z,24.01
2019-05-22T12:28:35.699Z,23.96
2019-05-22T12:29:35.702Z,23.87
2019-05-22T12:30:35.711Z,23.83
2019-05-22T12:31:35.709Z,23.74
2019-05-22T12:32:35.730Z,23.87
2019-05-22T12:33:35.719Z,23.73
2019-05-22T12:34:35.725Z,23.59
2019-05-22T12:35:35.742Z,23.44
2019-05-22T12:36:35.736Z,23.23
2019-05-22T12:37:35.745Z,23.10
2019-05-22T12:38:35.746Z,22.94
2019-05-22T12:39:35.766Z,22.80
2019-05-22T12:40:35.756Z,22.78
2019-05-22T12:41:35.757Z,22.70
2019-05-22T12:42:35.762Z,22.54
2019-05-22T12:43:35.763Z,22.78
2019-05-22T12:44:35.770Z,22.78
2019-05-22T12:45:35.770Z,22.78
2019-05-22T12:46:35.783Z,22.85
2019-05-22T12:47:35.777Z,23.20
2019-05-22T12:48:35.784Z,23.28
2019-05-22T12:49:35.785Z,23.27
2019-05-22T12:50:35.792Z,23.58
2019-05-22T12:51:35.805Z,23.50
2019-05-22T12:52:35.797Z,23.43